Terminal Aerodrome Forecast
Issued by NWS

Home | Current Version | Previous Version | Text Only | Print | Product List | Glossary On
Versions: 1 2 3 4 5 6 7 8 9 10 11 12 13 14
014
FTUS43 KICT 252320
TAFCNU
TAF
KCNU 252320Z 2600/2624 18012KT P6SM VCTS SCT035CB OVC050
      TEMPO 2600/2603 VRB25G40KT 1SM +TSRA OVC025CB
     FM260300 33011KT 5SM SHRA VCTS OVC025CB
     FM260800 33013G21KT P6SM -SHRA OVC010
     FM261400 34015G23KT P6SM VCSH OVC008
     FM261700 33014G23KT P6SM OVC020=

USA.gov is the U.S. government's official web portal to all federal, state and local government web resources and services.